createdAt,value
2022-10-12T00:02:01.569Z,101904.09
2022-10-12T00:04:36.268Z,101907.88
2022-10-12T00:07:05.409Z,101910.66
2022-10-12T00:09:38.040Z,101910.59
2022-10-12T00:12:10.351Z,101912.41
2022-10-12T00:14:38.134Z,101907.31
2022-10-12T00:17:05.895Z,101914.41
2022-10-12T00:19:35.645Z,101914.41
2022-10-12T00:22:04.136Z,101916.97
2022-10-12T00:24:32.055Z,101921.44
2022-10-12T00:26:59.543Z,101917.25
2022-10-12T00:29:29.995Z,101912.06
2022-10-12T00:31:59.126Z,101913.00
2022-10-12T00:34:29.534Z,101914.03
2022-10-12T00:37:03.999Z,101915.88
2022-10-12T00:39:33.043Z,101925.63
2022-10-12T00:42:02.442Z,101917.78
2022-10-12T00:44:49.469Z,101914.25
2022-10-12T00:47:23.369Z,101908.94
2022-10-12T00:50:14.686Z,101925.53
2022-10-12T00:52:53.166Z,101920.41
2022-10-12T00:55:24.674Z,101922.13
2022-10-12T00:58:03.731Z,101925.47
2022-10-12T01:00:33.904Z,101923.72
2022-10-12T01:03:05.922Z,101920.38
2022-10-12T01:05:33.676Z,101921.31
2022-10-12T01:08:05.503Z,101929.28
2022-10-12T01:10:33.447Z,101924.97
2022-10-12T01:13:06.809Z,101918.22
2022-10-12T01:15:39.891Z,101920.00
2022-10-12T01:18:20.165Z,101921.84
2022-10-12T01:21:09.173Z,101928.06
2022-10-12T01:24:01.997Z,101922.00
2022-10-12T01:26:59.615Z,101927.16
2022-10-12T01:29:56.303Z,101919.31
2022-10-12T01:32:43.629Z,101929.81
2022-10-12T01:35:24.095Z,101925.69
2022-10-12T01:38:03.218Z,101928.38
2022-10-12T01:40:39.411Z,101941.53
2022-10-12T01:43:10.367Z,101933.81
2022-10-12T01:45:41.041Z,101932.09
2022-10-12T01:48:10.723Z,101937.41
2022-10-12T01:50:55.536Z,101933.75
2022-10-12T01:53:54.447Z,101931.19
2022-10-12T01:56:44.693Z,101928.56
2022-10-12T01:59:41.270Z,101933.94
2022-10-12T02:02:11.354Z,101934.94
2022-10-12T02:04:48.064Z,101934.91
2022-10-12T02:07:40.607Z,101932.22
2022-10-12T02:10:24.792Z,101927.13
2022-10-12T02:12:54.346Z,101927.13
2022-10-12T02:15:23.857Z,101924.56
2022-10-12T02:17:54.713Z,101925.47
2022-10-12T02:20:29.047Z,101920.34
2022-10-12T02:22:59.489Z,101922.19
2022-10-12T02:25:35.852Z,101913.47
2022-10-12T02:28:16.445Z,101918.69
2022-10-12T02:30:58.699Z,101907.31
2022-10-12T02:33:37.731Z,101913.41
2022-10-12T02:36:17.437Z,101910.00
2022-10-12T02:39:12.342Z,101916.16
2022-10-12T02:41:45.618Z,101914.47
2022-10-12T02:44:17.106Z,101903.94
2022-10-12T02:46:51.886Z,101904.88
2022-10-12T02:49:28.454Z,101899.69
2022-10-12T02:52:09.496Z,101896.22
2022-10-12T02:54:39.223Z,101902.31
2022-10-12T02:57:09.564Z,101897.88
2022-10-12T02:59:37.049Z,101895.44
2022-10-12T03:02:10.210Z,101897.22
2022-10-12T03:04:42.642Z,101896.34
2022-10-12T03:07:19.017Z,101905.97
2022-10-12T03:09:50.068Z,101896.47
2022-10-12T03:12:21.157Z,101894.84
2022-10-12T03:14:51.349Z,101905.31
2022-10-12T03:17:27.690Z,101897.50
2022-10-12T03:19:59.678Z,101899.34
2022-10-12T03:22:30.167Z,101900.22
2022-10-12T03:25:00.422Z,101889.81
2022-10-12T03:27:30.810Z,101892.47
2022-10-12T03:30:04.263Z,101898.66
2022-10-12T03:32:31.887Z,101897.94
2022-10-12T03:35:02.854Z,101903.13
2022-10-12T03:37:34.320Z,101892.63
2022-10-12T03:40:06.786Z,101890.94
2022-10-12T03:42:35.642Z,101883.00
2022-10-12T03:45:05.812Z,101889.22
2022-10-12T03:47:40.286Z,101894.53
2022-10-12T03:50:11.349Z,101890.09
2022-10-12T03:52:38.528Z,101891.91
2022-10-12T03:55:07.421Z,101898.00
2022-10-12T03:57:35.862Z,101886.66
2022-10-12T04:00:06.703Z,101892.06
2022-10-12T04:02:41.308Z,101891.16
2022-10-12T04:05:10.255Z,101908.59
2022-10-12T04:07:38.082Z,101898.97
2022-10-12T04:10:08.322Z,101898.91
2022-10-12T04:12:46.104Z,101897.19
2022-10-12T04:15:18.387Z,101896.34
2022-10-12T04:17:49.864Z,101893.72
2022-10-12T04:20:25.253Z,101903.59
2022-10-12T04:22:57.359Z,101901.09
2022-10-12T04:25:29.984Z,101898.59
2022-10-12T04:28:03.410Z,101898.63
2022-10-12T04:30:36.458Z,101901.13
2022-10-12T04:33:12.677Z,101897.56
2022-10-12T04:35:41.481Z,101895.91
2022-10-12T04:38:10.731Z,101900.34
2022-10-12T04:40:40.861Z,101899.50
2022-10-12T04:43:14.706Z,101899.50
2022-10-12T04:45:42.863Z,101895.28
2022-10-12T04:48:14.561Z,101900.56
2022-10-12T04:50:50.239Z,101905.81
2022-10-12T04:53:21.834Z,101905.91
2022-10-12T04:55:52.418Z,101902.44
2022-10-12T04:58:21.363Z,101910.19
2022-10-12T05:00:51.126Z,101908.56
2022-10-12T05:03:21.502Z,101909.50
2022-10-12T05:05:51.613Z,101913.94
2022-10-12T05:08:22.273Z,101916.47
2022-10-12T05:10:53.134Z,101912.13
2022-10-12T05:13:21.522Z,101915.56
2022-10-12T05:15:52.829Z,101914.69
2022-10-12T05:18:27.572Z,101910.41
2022-10-12T05:21:03.758Z,101909.56
2022-10-12T05:23:38.047Z,101908.78
2022-10-12T05:26:05.634Z,101911.53
2022-10-12T05:28:40.626Z,101920.31
2022-10-12T05:31:09.050Z,101913.34
2022-10-12T05:33:41.499Z,101918.53
2022-10-12T05:36:10.689Z,101920.47
2022-10-12T05:38:41.048Z,101917.09
2022-10-12T05:41:11.082Z,101914.44
2022-10-12T05:48:00.671Z,101924.59
2022-10-12T05:50:32.520Z,101917.63
2022-10-12T05:53:01.826Z,101917.63
2022-10-12T05:55:29.133Z,101921.97
2022-10-12T05:57:56.464Z,101912.56
2022-10-12T06:00:25.642Z,101911.72
2022-10-12T06:02:53.138Z,101917.06
2022-10-12T06:05:20.581Z,101924.06
2022-10-12T06:07:50.373Z,101912.69
2022-10-12T06:10:17.518Z,101920.69
2022-10-12T06:12:46.851Z,101924.22
2022-10-12T06:15:19.944Z,101931.09
2022-10-12T06:17:48.185Z,101930.03
2022-10-12T06:20:16.480Z,101928.16
2022-10-12T06:22:45.589Z,101936.03
2022-10-12T06:25:12.991Z,101931.69
2022-10-12T06:27:41.789Z,101935.06
2022-10-12T06:30:09.337Z,101941.03
2022-10-12T06:32:36.875Z,101940.13
2022-10-12T06:35:06.719Z,101941.84
2022-10-12T06:37:49.502Z,101938.25
2022-10-12T06:40:18.902Z,101944.25
2022-10-12T06:42:46.225Z,101939.81
2022-10-12T06:45:15.648Z,101941.53
2022-10-12T06:47:45.217Z,101947.63
2022-10-12T06:50:12.932Z,101940.56
2022-10-12T06:52:41.677Z,101946.47
2022-10-12T06:55:10.778Z,101942.88
2022-10-12T06:57:38.749Z,101948.75
2022-10-12T07:00:07.696Z,101945.97
2022-10-12T07:02:35.727Z,101944.97
2022-10-12T07:05:05.769Z,101945.66
2022-10-12T07:07:34.148Z,101938.66
2022-10-12T07:10:02.509Z,101945.44
2022-10-12T07:12:29.709Z,101946.16
2022-10-12T07:14:58.033Z,101946.03
2022-10-12T07:17:25.896Z,101951.16
2022-10-12T07:19:53.420Z,101953.59
2022-10-12T07:22:20.840Z,101952.53
2022-10-12T07:24:48.650Z,101953.22
2022-10-12T07:27:17.202Z,101958.25
2022-10-12T07:29:44.320Z,101952.81
2022-10-12T07:32:11.454Z,101956.16
2022-10-12T07:34:40.334Z,101952.47
2022-10-12T07:37:07.679Z,101949.69
2022-10-12T07:39:38.296Z,101952.06
2022-10-12T07:42:05.657Z,101956.25
2022-10-12T07:44:34.113Z,101959.59
2022-10-12T07:47:03.711Z,101954.06
2022-10-12T07:49:30.901Z,101956.50
2022-10-12T07:51:58.229Z,101955.38
2022-10-12T07:54:29.205Z,101950.75
2022-10-12T07:56:58.984Z,101952.22
2022-10-12T07:59:26.945Z,101952.03
2022-10-12T08:01:55.387Z,101949.16
2022-10-12T08:04:22.646Z,101953.34
2022-10-12T08:06:51.613Z,101950.50
2022-10-12T08:09:18.984Z,101953.69
2022-10-12T08:11:48.743Z,101949.88
2022-10-12T08:14:17.380Z,101951.41
2022-10-12T08:16:44.864Z,101948.56
2022-10-12T08:19:11.958Z,101952.66
2022-10-12T08:21:40.415Z,101956.75
2022-10-12T08:24:09.379Z,101955.56
2022-10-12T08:26:36.803Z,101955.31
2022-10-12T08:29:05.942Z,101956.63
2022-10-12T08:31:33.204Z,101954.59
2022-10-12T08:34:02.094Z,101944.72
2022-10-12T08:36:30.989Z,101953.09
2022-10-12T08:38:58.512Z,101955.47
2022-10-12T08:41:43.480Z,101949.84
2022-10-12T08:44:32.305Z,101953.06
2022-10-12T08:47:13.061Z,101948.41
2022-10-12T08:49:40.992Z,101953.44
2022-10-12T08:52:18.702Z,101955.00
2022-10-12T08:54:46.334Z,101952.00
2022-10-12T08:57:17.819Z,101954.28
2022-10-12T08:59:46.163Z,101946.94
2022-10-12T09:02:17.794Z,101946.75
2022-10-12T09:04:58.924Z,101943.78
2022-10-12T09:07:30.599Z,101940.91
2022-10-12T09:10:34.554Z,101938.69
2022-10-12T09:13:39.452Z,101940.88
2022-10-12T09:16:21.268Z,101934.44
2022-10-12T09:18:53.905Z,101942.09
2022-10-12T09:21:23.149Z,101938.28
2022-10-12T09:23:50.412Z,101935.31
2022-10-12T09:26:46.131Z,101932.16
2022-10-12T09:29:27.776Z,101937.78
2022-10-12T09:32:20.926Z,101932.09
2022-10-12T09:34:49.005Z,101937.03
2022-10-12T09:37:21.829Z,101935.69
2022-10-12T09:40:03.790Z,101929.09
2022-10-12T09:42:34.841Z,101929.56
2022-10-12T09:45:19.130Z,101922.06
2022-10-12T09:48:12.118Z,101926.03
2022-10-12T09:50:43.941Z,101918.59
2022-10-12T09:53:23.389Z,101919.06
2022-10-12T09:55:58.605Z,101918.56
2022-10-12T09:58:33.970Z,101918.03
2022-10-12T10:01:19.527Z,101920.25
2022-10-12T10:03:49.285Z,101923.28
2022-10-12T10:06:22.913Z,101925.78
2022-10-12T10:08:59.370Z,101922.81
2022-10-12T10:11:28.657Z,101923.28
2022-10-12T10:14:21.293Z,101927.00
2022-10-12T10:16:52.759Z,101913.16
2022-10-12T10:19:22.105Z,101909.66
2022-10-12T10:21:49.787Z,101907.41
2022-10-12T10:24:30.863Z,101914.72
2022-10-12T10:27:05.698Z,101917.41
2022-10-12T10:29:39.847Z,101913.34
2022-10-12T10:32:28.841Z,101897.91
2022-10-12T10:35:04.486Z,101905.00
2022-10-12T10:37:35.412Z,101905.16
2022-10-12T10:40:03.206Z,101902.69
2022-10-12T10:42:32.737Z,101901.81
2022-10-12T10:45:09.158Z,101901.91
2022-10-12T10:47:46.595Z,101906.22
2022-10-12T10:50:35.565Z,101897.41
2022-10-12T10:53:24.570Z,101897.50
2022-10-12T10:56:09.636Z,101896.13
2022-10-12T10:58:47.786Z,101890.81
2022-10-12T11:01:23.920Z,101893.41
2022-10-12T11:04:04.820Z,101889.28
2022-10-12T11:06:40.908Z,101890.00
2022-10-12T11:09:44.830Z,101886.66
2022-10-12T11:12:30.237Z,101882.69
2022-10-12T11:15:19.604Z,101878.41
2022-10-12T11:17:49.779Z,101874.47
2022-10-12T11:20:38.578Z,101870.34
2022-10-12T11:23:21.033Z,101866.09
2022-10-12T11:26:01.807Z,101862.88
2022-10-12T11:28:32.304Z,101868.19
2022-10-12T11:31:11.931Z,101867.88
2022-10-12T11:33:44.497Z,101857.69
2022-10-12T11:36:23.544Z,101851.84
2022-10-12T11:39:22.826Z,101844.91
2022-10-12T11:42:20.334Z,101836.56
2022-10-12T11:44:46.404Z,101837.19
2022-10-12T11:47:19.213Z,101838.41
2022-10-12T11:49:57.201Z,101839.13
2022-10-12T11:52:29.081Z,101834.72
2022-10-12T11:55:23.801Z,101834.84
2022-10-12T11:57:53.168Z,101833.25
2022-10-12T12:00:29.865Z,101827.03
2022-10-12T12:03:14.781Z,101825.63
2022-10-12T12:05:45.169Z,101826.25
2022-10-12T12:08:23.571Z,101821.44
2022-10-12T12:11:08.168Z,101824.06
2022-10-12T12:13:46.384Z,101811.44
2022-10-12T12:16:16.422Z,101811.06
2022-10-12T12:19:12.864Z,101808.66
2022-10-12T12:22:18.995Z,101815.75
2022-10-12T12:25:02.187Z,101800.22
2022-10-12T12:27:43.510Z,101797.22
2022-10-12T12:30:19.784Z,101798.81
2022-10-12T12:32:56.523Z,101806.47
2022-10-12T12:35:42.616Z,101800.91
2022-10-12T12:38:12.844Z,101801.50
2022-10-12T12:40:46.229Z,101797.97
2022-10-12T12:43:31.688Z,101806.59
2022-10-12T12:46:16.196Z,101804.13
2022-10-12T12:48:44.630Z,101805.88
2022-10-12T12:51:23.890Z,101804.56
2022-10-12T12:54:20.404Z,101799.13
2022-10-12T12:57:16.131Z,101802.91
2022-10-12T12:59:54.389Z,101803.03
2022-10-12T13:02:36.764Z,101790.53
2022-10-12T13:05:52.056Z,101789.22
2022-10-12T13:08:51.518Z,101782.53
2022-10-12T13:11:57.821Z,101790.59
2022-10-12T13:14:49.714Z,101782.03
2022-10-12T13:17:47.666Z,101780.19
2022-10-12T13:20:22.255Z,101772.63
2022-10-12T13:22:53.329Z,101778.94
2022-10-12T13:25:30.017Z,101777.94
2022-10-12T13:27:58.600Z,101784.28
2022-10-12T13:30:34.945Z,101783.00
2022-10-12T13:33:02.286Z,101775.50
2022-10-12T13:35:41.979Z,101770.06
2022-10-12T13:38:15.691Z,101766.13
2022-10-12T13:40:48.708Z,101764.22
2022-10-12T13:43:23.403Z,101762.38
2022-10-12T13:45:50.532Z,101771.06
2022-10-12T13:48:39.781Z,101761.78
2022-10-12T13:51:54.077Z,101768.41
2022-10-12T13:54:39.419Z,101760.81
2022-10-12T13:57:31.219Z,101751.81
2022-10-12T14:00:18.272Z,101759.09
2022-10-12T14:02:56.799Z,101756.28
2022-10-12T14:05:29.168Z,101753.09
2022-10-12T14:08:08.281Z,101751.25
2022-10-12T14:10:40.727Z,101745.97
2022-10-12T14:13:17.574Z,101746.25
2022-10-12T14:15:48.091Z,101741.56
2022-10-12T14:18:39.729Z,101734.63
2022-10-12T14:21:36.866Z,101731.22
2022-10-12T14:24:11.602Z,101728.56
2022-10-12T14:26:49.943Z,101730.03
2022-10-12T14:30:10.666Z,101725.28
2022-10-12T14:38:43.958Z,101717.75
2022-10-12T14:41:51.206Z,101714.25
2022-10-12T14:44:23.079Z,101705.59
2022-10-12T14:46:59.383Z,101714.88
2022-10-12T14:49:34.313Z,101710.06
2022-10-12T14:52:02.351Z,101714.38
2022-10-12T14:54:32.000Z,101716.13
2022-10-12T14:57:26.047Z,101709.06
2022-10-12T15:00:07.049Z,101707.81
2022-10-12T15:02:35.130Z,101699.78
2022-10-12T15:05:03.997Z,101702.69
2022-10-12T15:07:36.397Z,101695.19
2022-10-12T15:10:05.317Z,101688.97
2022-10-12T15:12:34.363Z,101691.66
2022-10-12T15:15:07.898Z,101688.19
2022-10-12T15:17:36.782Z,101686.66
2022-10-12T15:20:06.112Z,101685.22
2022-10-12T15:22:39.060Z,101677.97
2022-10-12T15:25:23.037Z,101676.00
2022-10-12T15:27:57.364Z,101678.84
2022-10-12T15:30:58.006Z,101683.72
2022-10-12T15:33:40.752Z,101684.25
2022-10-12T15:36:10.364Z,101683.53
2022-10-12T15:38:40.133Z,101685.84
2022-10-12T15:41:18.230Z,101680.00
2022-10-12T15:43:45.344Z,101686.44
2022-10-12T15:46:18.175Z,101676.91
2022-10-12T15:48:46.312Z,101676.59
2022-10-12T15:51:25.380Z,101671.38
2022-10-12T15:53:55.759Z,101672.00
2022-10-12T15:56:23.013Z,101669.56
2022-10-12T15:58:58.988Z,101663.38
2022-10-12T16:01:29.222Z,101660.09
2022-10-12T16:03:57.999Z,101659.81
2022-10-12T16:06:28.640Z,101666.59
2022-10-12T16:08:57.851Z,101662.41
2022-10-12T16:11:26.466Z,101663.94
2022-10-12T16:14:01.848Z,101659.38
2022-10-12T16:16:33.791Z,101664.56
2022-10-12T16:19:10.963Z,101660.78
2022-10-12T16:21:39.586Z,101659.34
2022-10-12T16:24:21.475Z,101661.34
2022-10-12T16:26:49.938Z,101658.50
2022-10-12T16:29:17.052Z,101655.94
2022-10-12T16:31:47.553Z,101666.88
2022-10-12T16:34:22.912Z,101663.81
2022-10-12T16:36:55.746Z,101666.91
2022-10-12T16:39:23.173Z,101671.81
2022-10-12T16:41:53.941Z,101661.97
2022-10-12T16:44:24.065Z,101669.09
2022-10-12T16:46:53.632Z,101660.31
2022-10-12T16:49:28.527Z,101657.66
2022-10-12T16:51:59.298Z,101664.31
2022-10-12T16:54:34.313Z,101662.75
2022-10-12T16:57:05.942Z,101656.78
2022-10-12T16:59:33.150Z,101661.84
2022-10-12T17:02:02.854Z,101659.13
2022-10-12T17:04:34.140Z,101657.25
2022-10-12T17:07:02.733Z,101659.91
2022-10-12T17:09:30.960Z,101659.38
2022-10-12T17:11:58.438Z,101656.41
2022-10-12T17:14:26.025Z,101654.16
2022-10-12T17:16:57.134Z,101657.50
2022-10-12T17:19:35.350Z,101651.81
2022-10-12T17:22:16.608Z,101656.34
2022-10-12T17:24:46.850Z,101652.28
2022-10-12T17:27:18.226Z,101654.28
2022-10-12T17:29:46.796Z,101647.44
2022-10-12T17:32:14.641Z,101654.09
2022-10-12T17:34:43.708Z,101652.19
2022-10-12T17:37:16.093Z,101661.66
2022-10-12T17:39:45.822Z,101654.56
2022-10-12T17:42:13.705Z,101649.72
2022-10-12T17:44:41.570Z,101648.56
2022-10-12T17:47:08.748Z,101650.63
2022-10-12T17:49:41.838Z,101646.97
2022-10-12T17:52:13.364Z,101639.88
2022-10-12T17:54:43.945Z,101653.19
2022-10-12T17:57:11.535Z,101648.38
2022-10-12T17:59:40.828Z,101647.63
2022-10-12T18:02:09.785Z,101642.75
2022-10-12T18:04:37.430Z,101646.53
2022-10-12T18:07:06.399Z,101637.75
2022-10-12T18:09:34.201Z,101639.81
2022-10-12T18:12:06.307Z,101644.53
2022-10-12T18:14:38.738Z,101646.69
2022-10-12T18:17:08.120Z,101638.81
2022-10-12T18:19:41.262Z,101634.13
2022-10-12T18:22:11.003Z,101636.88
2022-10-12T18:24:40.652Z,101636.00
2022-10-12T18:27:13.111Z,101629.78
2022-10-12T18:29:40.317Z,101624.75
2022-10-12T18:32:09.064Z,101625.88
2022-10-12T18:34:40.838Z,101631.91
2022-10-12T18:37:20.859Z,101628.09
2022-10-12T18:42:58.977Z,101619.38
2022-10-12T18:45:33.102Z,101621.34
2022-10-12T18:48:11.089Z,101614.59
2022-10-12T18:50:41.530Z,101615.53
2022-10-12T18:56:26.742Z,101623.28
2022-10-12T18:59:06.161Z,101614.16
2022-10-12T19:01:42.988Z,101616.72
2022-10-12T19:04:21.320Z,101614.09
2022-10-12T19:06:57.592Z,101610.28
2022-10-12T19:09:31.064Z,101614.28
2022-10-12T19:12:10.143Z,101608.38
2022-10-12T19:15:10.754Z,101603.50
2022-10-12T19:20:28.927Z,101601.25
2022-10-12T19:24:09.889Z,101604.84
2022-10-12T19:26:06.258Z,101602.28
2022-10-12T19:28:40.086Z,101609.91
2022-10-12T19:31:22.950Z,101611.72
2022-10-12T19:34:05.315Z,101604.50
2022-10-12T19:36:42.055Z,101601.69
2022-10-12T19:42:12.323Z,101592.56
2022-10-12T19:44:51.967Z,101594.50
2022-10-12T19:47:54.227Z,101594.50
2022-10-12T19:50:32.166Z,101594.72
2022-10-12T19:53:16.738Z,101591.00
2022-10-12T19:55:51.370Z,101598.00
2022-10-12T19:58:28.981Z,101585.97
2022-10-12T20:03:58.425Z,101587.97
2022-10-12T20:06:30.303Z,101587.19
2022-10-12T20:09:01.173Z,101581.38
2022-10-12T20:11:32.018Z,101593.09
2022-10-12T20:14:02.059Z,101586.03
2022-10-12T20:16:35.198Z,101586.03
2022-10-12T20:19:07.462Z,101579.41
2022-10-12T20:21:37.605Z,101581.09
2022-10-12T20:24:10.445Z,101582.13
2022-10-12T20:26:38.444Z,101580.75
2022-10-12T20:29:06.729Z,101583.44
2022-10-12T20:31:36.368Z,101590.59
2022-10-12T20:34:05.744Z,101583.97
2022-10-12T20:36:34.743Z,101584.19
2022-10-12T20:39:12.500Z,101583.28
2022-10-12T20:41:51.639Z,101579.78
2022-10-12T20:44:29.450Z,101572.94
2022-10-12T20:47:01.337Z,101577.59
2022-10-12T20:49:32.711Z,101572.03
2022-10-12T20:52:06.763Z,101569.59
2022-10-12T20:54:36.577Z,101558.56
2022-10-12T20:57:05.522Z,101559.19
2022-10-12T20:59:34.721Z,101553.06
2022-10-12T21:02:10.549Z,101561.19
2022-10-12T21:04:39.543Z,101559.84
2022-10-12T21:07:18.610Z,101548.25
2022-10-12T21:09:49.026Z,101548.53
2022-10-12T21:12:17.015Z,101544.25
2022-10-12T21:14:51.245Z,101550.31
2022-10-12T21:17:22.421Z,101541.63
2022-10-12T21:19:57.060Z,101542.03
2022-10-12T21:22:33.725Z,101544.63
2022-10-12T21:25:10.993Z,101534.22
2022-10-12T21:27:42.145Z,101539.56
2022-10-12T21:30:13.056Z,101535.41
2022-10-12T21:33:14.867Z,101545.31
2022-10-12T21:35:45.581Z,101536.75
2022-10-12T21:38:21.453Z,101541.09
2022-10-12T21:41:15.152Z,101541.09
2022-10-12T21:43:45.512Z,101541.94
2022-10-12T21:46:28.591Z,101544.59
2022-10-12T21:49:00.874Z,101544.66
2022-10-12T21:51:30.209Z,101542.88
2022-10-12T21:54:02.482Z,101548.97
2022-10-12T21:56:36.488Z,101549.91
2022-10-12T21:59:07.187Z,101548.00
2022-10-12T22:01:44.347Z,101547.56
2022-10-12T22:04:16.237Z,101543.47
2022-10-12T22:06:44.971Z,101543.34
2022-10-12T22:12:00.309Z,101538.97
2022-10-12T22:14:32.333Z,101536.72
2022-10-12T22:17:07.483Z,101543.28
2022-10-12T22:19:38.696Z,101541.72
2022-10-12T22:22:06.594Z,101540.19
2022-10-12T22:24:34.478Z,101543.66
2022-10-12T22:27:05.101Z,101523.72
2022-10-12T22:29:39.801Z,101522.22
2022-10-12T22:32:11.007Z,101518.06
2022-10-12T22:34:41.538Z,101519.03
2022-10-12T22:37:10.233Z,101520.56
2022-10-12T22:39:39.495Z,101522.63
2022-10-12T22:42:08.090Z,101514.66
2022-10-12T22:44:35.466Z,101508.84
2022-10-12T22:47:04.040Z,101507.78
2022-10-12T22:49:33.061Z,101515.91
2022-10-12T22:52:01.631Z,101507.56
2022-10-12T22:54:35.247Z,101506.88
2022-10-12T22:57:05.545Z,101508.56
2022-10-12T22:59:37.519Z,101497.97
2022-10-12T23:02:16.043Z,101495.03
2022-10-12T23:04:46.930Z,101493.97
2022-10-12T23:07:14.340Z,101498.56
2022-10-12T23:09:51.707Z,101501.25
2022-10-12T23:12:21.437Z,101489.97
2022-10-12T23:14:49.349Z,101494.38
2022-10-12T23:17:20.337Z,101492.78
2022-10-12T23:19:49.625Z,101499.06
2022-10-12T23:22:19.182Z,101492.88
2022-10-12T23:24:56.001Z,101492.16
2022-10-12T23:27:26.575Z,101487.91
2022-10-12T23:29:54.469Z,101487.22
2022-10-12T23:32:22.688Z,101496.28
2022-10-12T23:34:52.705Z,101492.16
2022-10-12T23:37:22.508Z,101493.16
2022-10-12T23:39:58.540Z,101494.44
2022-10-12T23:42:26.898Z,101494.75
2022-10-12T23:44:54.492Z,101488.56
2022-10-12T23:47:23.420Z,101491.84
2022-10-12T23:49:52.164Z,101495.03
2022-10-12T23:52:28.411Z,101492.16
2022-10-12T23:54:56.496Z,101490.28
2022-10-12T23:57:45.545Z,101490.16
